Latest Coastal Weather Observations for Hobart

IDT60701

Issued at 6:51 am EST Sunday 30 August 2015 (issued every 10 minutes, with the page automatically refreshed every 10 minutes)

About coastal observations | Map of coastal stations | Coastal observations for TAS | Marine services | Other Formats
Station Details ID: 094029 Name: HOBART (ELLERSLIE ROAD) Lat: -42.89 Lon: 147.33 Height: 50.5 m
Data from the previous 72 hours. | See also: Recent months at Hobart
Date/Time
EST
Temp

°C
Wind Pressure Rain
since 9am
mm
Weather Cloud Vis
km
Sea
Height
m
Swell
Dir
 
Speed
knots
Gust
knots
hPa Trend Height
m
Period
s
Dir
30/06:30am 6.4 SSE 7 12 1025.1 - 1.0 - - - - - - -
30/06:00am 6.5 SSW 9 14 1024.9 - 1.0 - - - - - - -
30/05:30am 6.3 SSW 8 15 1024.7 - 1.0 - - - - - - -
30/05:00am 6.4 SSW 10 16 1024.7 - 1.0 - - - - - - -
30/04:30am 6.9 S 8 14 1024.5 - 1.0 - - - - - - -
30/04:00am 6.5 SSW 7 12 1024.4 - 1.0 - - - - - - -
30/03:30am 6.4 SSW 8 15 1024.7 - 1.0 - - - - - - -
30/03:00am 6.2 SSW 8 14 1024.9 - 1.0 - - - - - - -
30/02:30am 6.5 SSW 7 11 1025.1 - 1.0 - - - - - - -
30/02:00am 6.3 S 7 13 1025.5 - 1.0 - - - - - - -
30/01:30am 6.2 S 9 20 1025.8 - 1.0 - - - - - - -
30/01:00am 6.8 SSW 6 10 1025.7 - 1.0 - - - - - - -
30/12:30am 7.0 S 7 11 1025.8 - 1.0 - - - - - - -
30/12:00am 7.1 SSW 9 15 1025.9 - 1.0 - - - - - - -
 
Date/Time
EST
Temp

°C
Wind Pressure Rain
since 9am
mm
Weather Cloud Vis
km
Sea
Height
m
Swell
Dir
 
Speed
knots
Gust
knots
hPa Trend Height
m
Period
s
Dir
29/11:30pm 7.0 SSW 9 14 1025.9 - 1.0 - - - - - - -
29/11:00pm 7.0 S 8 13 1025.8 - 1.0 - - - - - - -
29/10:30pm 7.0 S 9 12 1025.8 - 1.0 - - - - - - -
29/10:00pm 7.2 S 11 21 1025.8 - 1.0 - - - - - - -
29/09:30pm 7.2 S 12 18 1025.8 - 1.0 - - - - - - -
29/09:00pm 7.3 S 13 21 1025.6 - 1.0 - - - - - - -
29/08:30pm 7.6 S 14 23 1025.4 - 1.0 - - - - - - -
29/08:00pm 7.4 SSW 13 24 1025.2 - 1.0 - - - - - - -
29/07:30pm 7.5 SSW 16 28 1025.1 - 1.0 - - - - - - -
29/07:18pm 7.7 S 15 25 1024.9 - 1.0 - - - - - - -
29/07:00pm 7.1 S 13 21 1024.9 - 1.0 - - - - - - -
29/06:34pm 7.8 S 15 29 1024.6 - 1.0 - - - - - - -
29/06:30pm 7.8 SSW 14 29 1024.6 - 1.0 - - - - - - -
29/06:00pm 7.7 SSW 14 21 1024.2 - 1.0 - - - - - - -
29/05:30pm 7.7 S 13 21 1023.9 - 1.0 - - - - - - -
29/05:00pm 7.7 S 16 26 1023.4 - 1.0 - - - - - - -
29/04:31pm 7.7 S 15 27 1023.4 - 1.0 - - - - - - -
29/04:30pm 7.7 S 14 22 1023.4 - 1.0 - - - - - - -
29/04:00pm 7.9 S 15 26 1023.1 - 1.0 - - - - - - -
29/03:41pm 8.1 S 15 25 1023.0 - 1.0 - - - - - - -
29/03:30pm 8.0 S 15 23 1023.1 - 1.0 - - - - - - -
29/03:19pm 8.0 S 15 25 1023.2 - 1.0 - - - - - - -
29/03:00pm 7.8 S 13 23 1023.1 - 1.0 - - - - - - -
29/02:35pm 7.6 S 15 25 1022.9 - 1.0 - - - - - - -
29/02:30pm 7.6 SSW 16 25 1023.0 - 1.0 - - - - - - -
29/02:01pm 7.6 S 16 26 1022.9 - 1.0 - - - - - - -
29/02:00pm 7.6 S 17 26 1022.9 - 1.0 - - - - - - -
29/01:30pm 7.8 S 16 26 1022.6 - 0.6 - - - - - - -
29/01:03pm 7.8 S 17 28 1022.5 - 0.6 - - - - - - -
29/01:00pm 7.7 S 17 25 1022.4 - 0.6 - - - - - - -
29/12:30pm 8.0 S 17 28 1022.5 - 0.2 - - - - - - -
29/12:00pm 7.8 SSW 17 28 1022.7 - 0.2 - - - - - - -
29/11:30am 8.2 S 19 32 1022.7 - 0.2 - - - - - - -
29/11:00am 8.0 S 17 29 1022.5 - 0.2 - - - - - - -
29/10:30am 8.0 S 19 31 1022.4 - 0.2 - - - - - - -
29/10:00am 7.9 S 19 29 1022.4 - 0.2 - - - - - - -
29/09:30am 8.3 S 23 33 1022.0 - 0.0 - - - - - - -
29/09:03am 8.0 S 17 27 1022.1 - 0.0 - - - - - - -
29/09:00am 8.0 S 17 25 1022.2 - 25.6 Rain - - - - - -
29/08:30am 8.2 S 19 29 1021.5 - 25.4 - - - - - - -
29/08:00am 8.4 S 21 32 1021.2 - 25.0 - - - - - - -
29/07:30am 8.6 S 21 32 1020.7 - 23.8 - - - - - - -
29/07:00am 8.7 S 20 30 1020.3 - 23.0 - - - - - - -
29/06:30am 8.7 S 19 29 1019.8 - 21.8 - - - - - - -
29/06:01am 8.4 S 15 28 1019.4 - 20.6 - - - - - - -
29/06:00am 8.4 S 15 22 1019.4 - 20.6 Rain - - - - - -
29/05:30am 8.2 SSW 19 30 1019.1 - 18.6 - - - - - - -
29/05:10am 7.8 SSW 18 28 1018.9 - 17.8 - - - - - - -
29/05:00am 7.7 SSW 19 27 1018.8 - 17.4 - - - - - - -
29/04:35am 7.1 SSW 16 26 1018.5 - 16.4 - - - - - - -
29/04:30am 7.1 SSW 16 23 1018.5 - 16.4 - - - - - - -
29/04:07am 6.8 SSW 16 26 1018.4 - 15.8 - - - - - - -
29/04:00am 6.7 SSW 17 25 1018.4 - 15.6 - - - - - - -
29/03:48am 6.7 SSW 15 26 1018.4 - 15.4 - - - - - - -
29/03:30am 6.4 SSW 15 21 1018.5 - 15.0 - - - - - - -
29/03:00am 6.1 SSW 12 20 1018.5 - 14.6 Recent precip. - - - - - -
29/02:30am 5.7 SSW 10 17 1018.8 - 14.4 - - - - - - -
29/02:00am 5.6 SSW 11 17 1018.7 - 13.6 - - - - - - -
29/01:30am 5.3 SSW 9 13 1018.7 - 12.6 - - - - - - -
29/01:00am 5.4 SSW 12 20 1018.7 - 11.0 - - - - - - -
29/12:30am 4.5 SW 12 19 1018.9 - 10.6 - - - - - - -
29/12:00am 5.3 SW 17 25 1019.0 - 9.2 Recent precip. - - - - - -
 
Date/Time
EST
Temp

°C
Wind Pressure Rain
since 9am
mm
Weather Cloud Vis
km
Sea
Height
m
Swell
Dir
 
Speed
knots
Gust
knots
hPa Trend Height
m
Period
s
Dir
28/11:57pm 5.6 SW 15 25 1018.9 - 9.2 - - - - - - -
28/11:30pm 5.5 SW 10 16 1019.1 - 9.2 - - - - - - -
28/11:00pm 5.7 SW 15 27 1019.8 - 8.4 - - - - - - -
28/10:30pm 5.3 SW 15 26 1019.8 - 8.2 - - - - - - -
28/10:20pm 5.1 SW 15 25 1020.1 - 8.2 - - - - - - -
28/10:00pm 5.1 SW 9 16 1020.5 - 8.2 - - - - - - -
28/09:30pm 4.6 SW 9 19 1020.9 - 7.8 - - - - - - -
28/09:00pm 4.1 WNW 7 17 1021.7 - 7.4 Rain - - - - - -
28/08:30pm 4.2 W 9 18 1021.9 - 6.8 - - - - - - -
28/08:00pm 4.1 NNW 7 12 1022.3 - 6.4 - - - - - - -
28/07:30pm 4.2 WSW 10 15 1023.0 - 5.2 - - - - - - -
28/07:00pm 4.0 WSW 8 13 1023.3 - 4.6 - - - - - - -
28/06:30pm 3.6 SSW 11 19 1023.6 - 4.6 - - - - - - -
28/06:00pm 4.3 SW 11 18 1023.8 - 4.2 Recent precip. - - - - - -
28/05:33pm 5.1 SW 15 27 1024.0 - 4.0 - - - - - - -
28/05:30pm 5.1 SW 12 21 1024.0 - 4.0 - - - - - - -
28/05:00pm 5.4 SSW 13 21 1024.3 - 4.0 - - - - - - -
28/04:30pm 5.1 SSW 12 20 1024.3 - 4.0 - - - - - - -
28/04:14pm 6.4 SSW 15 29 1024.2 - 3.6 - - - - - - -
28/04:00pm 5.9 SSW 12 21 1024.3 - 3.6 - - - - - - -
28/03:40pm 6.9 SSW 16 35 1024.2 - 3.6 - - - - - - -
28/03:34pm 7.1 SSW 15 25 1024.2 - 3.6 - - - - - - -
28/03:30pm 7.0 SSW 14 25 1024.2 - 3.6 - - - - - - -
28/03:00pm 5.8 SSW 11 17 1024.6 - 3.6 Rain - - - - - -
28/02:30pm 4.5 S 18 26 1025.0 - 2.8 - - - - - - -
28/02:00pm 7.3 SSW 17 29 1024.4 - 1.4 - - - - - - -
28/01:35pm 7.3 SSW 19 31 1024.8 - 1.4 - - - - - - -
28/01:30pm 7.3 SSW 17 23 1024.9 - 1.4 - - - - - - -
28/01:00pm 6.7 SW 12 17 1025.6 - 1.4 - - - - - - -
28/12:51pm 6.8 SSW 15 25 1025.6 - 1.4 - - - - - - -
28/12:30pm 6.4 SSE 17 24 1025.7 - 1.4 - - - - - - -
28/12:00pm 6.9 SSW 9 15 1026.2 - 1.4 Recent precip. - - - - - -
28/11:30am 3.9 SSW 16 28 1026.7 - 1.4 - - - - - - -
28/11:12am 5.7 SSE 15 25 1027.0 - 0.6 - - - - - - -
28/11:00am 5.1 SSE 15 23 1027.0 - 0.6 - - - - - - -
28/10:30am 6.1 S 13 23 1026.9 - 0.2 - - - - - - -
28/10:00am 6.5 SSW 13 24 1026.8 - 0.2 - - - - - - -
28/09:39am 6.2 SSW 15 26 1026.9 - 0.2 - - - - - - -
28/09:30am 6.4 SSW 14 22 1026.8 - 0.2 - - - - - - -
28/09:00am 6.3 SSW 11 17 1026.9 - 2.0 - - - - - - -
28/08:30am 6.4 SSW 12 21 1026.7 - 2.0 - - - - - - -
28/08:00am 5.3 SSW 10 16 1026.4 - 2.0 - - - - - - -
28/07:30am 5.0 SSW 15 21 1026.2 - 2.0 - - - - - - -
28/07:01am 4.8 SSW 15 26 1025.9 - 1.8 - - - - - - -
28/07:00am 4.8 S 14 26 1025.8 - 1.8 - - - - - - -
28/06:36am 5.0 SSW 15 29 1025.4 - 1.8 - - - - - - -
28/06:30am 5.1 SSW 14 21 1025.3 - 1.8 - - - - - - -
28/06:00am 5.2 SSW 14 21 1024.6 - 1.8 Recent precip. - - - - - -
28/05:47am 5.5 SSW 15 26 1024.5 - 1.8 - - - - - - -
28/05:30am 5.3 SSE 5 12 1024.6 - 1.8 - - - - - - -
28/05:06am 5.2 S 17 27 1024.9 - 1.8 - - - - - - -
28/05:00am 5.2 SE 11 25 1024.9 - 1.4 - - - - - - -
28/04:30am 5.9 SSW 15 25 1024.1 - 1.0 - - - - - - -
28/04:06am 6.1 SSW 17 28 1023.7 - 1.0 - - - - - - -
28/04:00am 6.2 SSW 18 26 1023.8 - 1.0 - - - - - - -
28/03:45am 6.3 SSW 15 25 1023.6 - 0.6 - - - - - - -
28/03:30am 6.3 SSW 13 22 1024.0 - 0.6 - - - - - - -
28/03:15am 6.4 S 15 25 1023.9 - 0.6 - - - - - - -
28/03:00am 6.5 S 14 22 1023.9 - 0.4 Recent precip. - - - - - -
28/02:30am 6.9 SSW 13 21 1024.1 - 0.2 - - - - - - -
28/02:00am 7.1 S 11 17 1024.1 - 0.2 - - - - - - -
28/01:30am 7.3 SSW 12 19 1023.8 - 0.2 - - - - - - -
28/01:00am 7.7 SSW 12 21 1023.5 - 0.0 - - - - - - -
28/12:30am 7.5 W 4 8 1023.3 - 0.0 - - - - - - -
28/12:00am 7.2 NW 4 6 1023.0 - 0.0 - - - - - - -
 
Date/Time
EST
Temp

°C
Wind Pressure Rain
since 9am
mm
Weather Cloud Vis
km
Sea
Height
m
Swell
Dir
 
Speed
knots
Gust
knots
hPa Trend Height
m
Period
s
Dir
27/11:30pm 7.7 S 1 5 1023.1 - 0.0 - - - - - - -
27/11:00pm 7.5 W 4 5 1023.2 - 0.0 - - - - - - -
27/10:30pm 8.3 NNW 5 7 1023.3 - 0.0 - - - - - - -
27/10:00pm 9.1 NNW 7 9 1023.2 - 0.0 - - - - - - -
27/09:30pm 9.2 W 4 7 1023.5 - 0.0 - - - - - - -
27/09:00pm 9.1 CALM 0 3 1023.4 - 0.0 - - - - - - -
27/08:30pm 9.3 ESE 4 6 1023.2 - 0.0 - - - - - - -
27/08:00pm 9.2 SSE 5 9 1023.0 - 0.0 - - - - - - -
27/07:30pm 9.2 SSW 8 12 1022.9 - 0.0 - - - - - - -
27/07:00pm 9.5 SSW 5 11 1022.8 - 0.0 - - - - - - -
27/06:30pm 9.5 SSW 7 11 1022.4 - 0.0 - - - - - - -
27/06:00pm 10.0 SSW 8 13 1022.2 - 0.0 - - - - - - -
27/05:30pm 10.3 SSE 6 9 1022.0 - 0.0 - - - - - - -
27/05:00pm 10.3 SSE 8 11 1021.8 - 0.0 - - - - - - -
27/04:30pm 10.7 SE 8 12 1021.7 - 0.0 - - - - - - -
27/04:00pm 11.6 SSE 6 9 1021.6 - 0.0 - - - - - - -
27/03:30pm 10.4 E 9 11 1021.6 - 0.0 - - - - - - -
27/03:00pm 11.0 ESE 7 12 1021.7 - 0.0 - - - - - - -
27/02:30pm 10.4 E 4 6 1021.7 - 0.0 - - - - - - -
27/02:00pm 9.9 ESE 5 6 1021.9 - 0.0 - - - - - - -
27/01:30pm 10.5 ESE 4 5 1022.0 - 0.0 - - - - - - -
27/01:00pm 11.0 E 3 5 1022.3 - 0.0 - - - - - - -
27/12:30pm 10.1 SSE 3 4 1022.7 - 0.0 - - - - - - -
27/12:00pm 9.8 E 3 5 1023.2 - 0.0 - - - - - - -
27/11:30am 9.9 ENE 3 5 1023.4 - 0.0 - - - - - - -
27/11:00am 9.7 CALM 0 0 1023.6 - 0.0 - - - - - - -
27/10:30am 9.5 NNW 4 5 1023.8 - 0.0 - - - - - - -
27/10:00am 9.2 N 1 4 1024.0 - 0.0 - - - - - - -
27/09:30am 8.3 NNW 4 5 1024.2 - 0.0 - - - - - - -
27/09:00am 7.2 NNW 4 5 1024.5 - 0.0 - - - - - - -
27/08:30am 6.4 WNW 1 3 1024.6 - 0.0 - - - - - - -
27/08:00am 5.9 NNW 5 6 1024.5 - 0.0 - - - - - - -
27/07:30am 5.9 NNW 7 8 1024.4 - 0.0 - - - - - - -
27/07:00am 5.6 NW 3 6 1024.3 - 0.0 - - - - - - -

Other Formats:

Comma delimited format used in spreadsheet applications
http://www.bom.gov.au/fwo/IDT60701/IDT60701.94970.axf

JavaScript Object Notation format (JSON) in row-major order
http://www.bom.gov.au/fwo/IDT60701/IDT60701.94970.json